Time;durP1;ratioP1;P1;durP2;ratioP2;P2;SDS_P1;SDS_P2;PMS_P1;PMS_P2;Temp;Humidity;BMP_temperature;BMP_pressure;BME280_temperature;BME280_humidity;BME280_pressure;Samples;Min_cycle;Max_cycle;Signal;HPM_P1;HPM_P2
2021/08/12 00:01:25;;;;;;;;;14.50;10.50;;;;;24.90;46.98;101164.13;4917690;28;45796;-81
2021/08/12 00:07:12;;;;;;;;;12.00;10.50;;;;;24.85;47.09;101149.59;4918767;28;45824;-86
2021/08/12 00:09:37;;;;;;;;;10.00;9.25;;;;;24.88;47.04;101162.69;4918551;28;45635;-89
2021/08/12 00:12:03;;;;;;;;;6.75;6.25;;;;;24.82;47.26;101150.00;4918297;28;45491;-87
2021/08/12 00:14:28;;;;;;;;;8.00;8.00;;;;;24.83;47.18;101147.09;4918852;28;45921;-82
2021/08/12 00:16:54;;;;;;;;;8.25;8.25;;;;;24.79;47.17;101148.50;4918373;28;46492;-83
2021/08/12 00:19:19;;;;;;;;;7.00;7.00;;;;;24.64;46.93;101131.63;4918336;28;45654;-82
2021/08/12 00:21:45;;;;;;;;;10.75;8.50;;;;;24.76;46.95;101148.06;4918024;28;45739;-86
2021/08/12 00:24:10;;;;;;;;;9.25;8.50;;;;;24.80;47.53;101163.59;4918777;28;45714;-82
2021/08/12 00:26:36;;;;;;;;;7.00;7.00;;;;;24.79;47.42;101156.56;4917640;28;45581;-83
2021/08/12 00:29:04;;;;;;;;;9.00;8.50;;;;;24.63;47.22;101132.66;4918321;28;46496;-84
2021/08/12 00:31:30;;;;;;;;;9.50;9.50;;;;;24.62;47.21;101131.81;4917828;28;45877;-88
2021/08/12 00:37:19;;;;;;;;;8.25;7.75;;;;;24.60;47.11;101139.22;4916201;28;45867;-86
2021/08/12 00:39:44;;;;;;;;;8.00;8.00;;;;;24.60;47.14;101133.88;4918540;28;45992;-82
2021/08/12 00:42:10;;;;;;;;;9.25;8.25;;;;;24.57;47.27;101126.19;4917665;28;45919;-81
2021/08/12 00:44:36;;;;;;;;;9.25;8.75;;;;;24.70;47.26;101151.50;4922627;28;45733;-81
2021/08/12 00:47:01;;;;;;;;;10.00;10.00;;;;;24.64;47.23;101153.06;4921553;28;46251;-81
2021/08/12 00:49:27;;;;;;;;;9.75;7.75;;;;;24.66;47.28;101151.03;4921857;28;45995;-83
2021/08/12 00:51:53;;;;;;;;;8.25;8.25;;;;;24.67;47.25;101156.19;4923896;28;45477;-83
2021/08/12 00:54:19;;;;;;;;;10.00;9.25;;;;;24.57;47.35;101133.38;4903477;28;45548;-82
2021/08/12 00:56:47;;;;;;;;;10.50;9.00;;;;;24.62;47.71;101133.66;4919746;28;45733;-81
2021/08/12 00:59:12;;;;;;;;;9.00;8.75;;;;;24.64;47.38;101134.31;4920914;28;46038;-81
2021/08/12 01:01:38;;;;;;;;;9.50;8.75;;;;;24.48;47.50;101107.72;4920728;28;45990;-81
2021/08/12 01:07:25;;;;;;;;;8.75;7.75;;;;;24.59;47.46;101129.53;4921622;28;45949;-81
2021/08/12 01:10:02;;;;;;;;;9.25;9.00;;;;;24.56;47.36;101123.72;4922548;28;45964;-82
2021/08/12 01:12:34;;;;;;;;;10.25;9.50;;;;;24.58;47.65;101129.69;4923299;28;45694;-82
2021/08/12 01:15:08;;;;;;;;;13.00;12.50;;;;;24.51;47.62;101134.97;4924765;28;45849;-82
2021/08/12 01:18:02;;;;;;;;;10.00;10.00;;;;;24.50;48.56;101140.53;4920186;28;47127;-84
2021/08/12 01:20:30;;;;;;;;;15.00;13.00;;;;;24.41;48.80;101138.94;4912793;28;46129;-83
2021/08/12 01:22:59;;;;;;;;;13.50;12.75;;;;;24.22;49.30;101125.13;4918135;28;45793;-83
2021/08/12 01:25:28;;;;;;;;;14.25;13.50;;;;;24.16;48.88;101139.22;4920123;28;45618;-90
2021/08/12 01:27:57;;;;;;;;;12.75;12.75;;;;;24.17;49.49;101153.44;4920575;28;46353;-86
2021/08/12 01:30:26;;;;;;;;;13.25;12.75;;;;;24.12;49.74;101145.13;4918639;28;46089;-89
2021/08/12 01:33:18;;;;;;;;;13.00;13.00;;;;;24.08;49.95;101141.97;4902821;28;45716;-90
2021/08/12 01:35:45;;;;;;;;;12.25;11.00;;;;;23.95;50.40;101124.91;4917926;28;45869;-82
2021/08/12 01:38:17;;;;;;;;;17.25;13.75;;;;;23.72;49.93;101104.38;4917472;28;45657;-86
2021/08/12 01:40:44;;;;;;;;;13.25;12.50;;;;;23.71;50.57;101120.59;4917597;28;46140;-83
2021/08/12 01:43:15;;;;;;;;;14.00;13.00;;;;;23.52;50.87;101095.22;4918398;28;45746;-89
2021/08/12 01:45:47;;;;;;;;;13.25;13.25;;;;;23.69;50.76;101136.88;4902565;28;45754;-92
2021/08/12 01:48:13;;;;;;;;;14.75;12.50;;;;;23.47;51.12;101112.81;4902634;28;47491;-87
2021/08/12 01:50:39;;;;;;;;;13.00;13.00;;;;;23.42;51.47;101107.97;4901623;28;46619;-92
2021/08/12 01:53:05;;;;;;;;;14.00;12.25;;;;;23.48;51.14;101135.88;4919294;28;45735;-87
2021/08/12 01:55:32;;;;;;;;;14.50;14.00;;;;;23.32;51.42;101118.91;4918984;28;45591;-90
2021/08/12 01:58:02;;;;;;;;;16.75;13.50;;;;;23.32;51.63;101134.94;4918775;28;46439;-88
2021/08/12 02:00:30;;;;;;;;;16.00;13.00;;;;;23.17;51.75;101118.03;4921924;28;46041;-90
2021/08/12 02:02:57;;;;;;;;;14.00;14.00;;;;;23.17;52.39;101128.72;4922447;28;45659;-89
2021/08/12 02:05:24;;;;;;;;;14.25;14.25;;;;;23.24;52.36;101151.06;4922304;28;45715;-91
2021/08/12 02:07:52;;;;;;;;;12.25;12.25;;;;;23.20;52.51;101149.75;4922121;28;45660;-92
2021/08/12 02:10:18;;;;;;;;;15.25;14.00;;;;;23.01;52.59;101121.63;4921197;28;45877;-89
2021/08/12 02:12:44;;;;;;;;;12.75;12.00;;;;;23.02;52.66;101138.50;4921490;28;45748;-85
2021/08/12 02:15:11;;;;;;;;;15.25;15.00;;;;;23.03;52.84;101145.53;4922271;28;45744;-90
2021/08/12 02:17:36;;;;;;;;;16.50;14.00;;;;;22.91;52.76;101136.25;4921582;28;45771;-93
2021/08/12 02:20:11;;;;;;;;;13.00;12.75;;;;;22.88;53.28;101131.25;4921844;28;45660;-88
2021/08/12 02:22:43;;;;;;;;;15.25;14.00;;;;;22.86;53.43;101134.09;4921615;28;45802;-85
2021/08/12 02:25:13;;;;;;;;;15.75;14.50;;;;;22.64;53.01;101105.47;4922852;28;45780;-82
2021/08/12 02:27:42;;;;;;;;;17.50;16.50;;;;;22.79;53.51;101127.78;4920848;28;45644;-82
2021/08/12 02:30:13;;;;;;;;;18.00;14.75;;;;;22.76;53.82;101130.00;4920882;28;45701;-81
2021/08/12 02:32:40;;;;;;;;;14.25;12.25;;;;;22.62;53.61;101120.81;4921041;28;45750;-87
2021/08/12 02:35:10;;;;;;;;;16.50;15.75;;;;;22.68;54.18;101132.66;4922130;28;46027;-84
2021/08/12 02:37:36;;;;;;;;;16.50;14.75;;;;;22.65;53.76;101138.34;4924133;28;46843;-85
2021/08/12 02:40:04;;;;;;;;;13.25;13.00;;;;;22.55;54.30;101134.06;4930425;28;46123;-84
2021/08/12 02:42:30;;;;;;;;;16.50;14.25;;;;;22.42;54.75;101124.94;4924931;28;46103;-87
2021/08/12 02:44:58;;;;;;;;;12.50;12.25;;;;;22.46;54.85;101144.94;4926637;28;45586;-88
2021/08/12 02:47:25;;;;;;;;;14.75;13.50;;;;;22.17;55.02;101110.84;4926722;28;46273;-84
2021/08/12 02:53:13;;;;;;;;;15.00;14.25;;;;;22.17;55.53;101127.69;4921445;28;45835;-87
2021/08/12 02:55:38;;;;;;;;;16.50;14.25;;;;;22.09;55.25;101121.53;4929939;28;45523;-81
2021/08/12 02:58:06;;;;;;;;;14.25;12.25;;;;;22.06;55.50;101135.22;4943810;28;45732;-82
2021/08/12 03:00:32;;;;;;;;;11.00;11.00;;;;;21.98;55.86;101113.88;4943564;28;45784;-85
2021/08/12 03:02:58;;;;;;;;;13.75;13.00;;;;;21.87;55.68;101115.06;4943082;28;45622;-81
2021/08/12 03:05:24;;;;;;;;;17.00;15.25;;;;;21.77;55.92;101107.25;4943055;28;45280;-80
2021/08/12 03:07:50;;;;;;;;;13.50;11.50;;;;;21.83;55.77;101113.72;4944356;28;45547;-84
2021/08/12 03:10:20;;;;;;;;;16.00;14.25;;;;;21.72;55.83;101090.91;4938558;28;45611;-88
2021/08/12 03:12:47;;;;;;;;;14.25;13.75;;;;;21.93;55.66;101129.53;4920428;28;45656;-89
2021/08/12 03:15:14;;;;;;;;;13.75;13.25;;;;;21.77;55.93;101104.56;4920638;28;45686;-88
2021/08/12 03:17:40;;;;;;;;;12.75;12.75;;;;;21.94;55.62;101121.41;4919501;28;46913;-82
2021/08/12 03:23:27;;;;;;;;;14.75;11.50;;;;;21.83;55.98;101119.06;4923593;28;45715;-83
2021/08/12 03:25:52;;;;;;;;;14.75;13.00;;;;;21.85;56.28;101126.91;4928117;28;45752;-86
2021/08/12 03:28:18;;;;;;;;;14.00;13.00;;;;;21.84;56.08;101136.75;4922228;28;47086;-89
2021/08/12 03:30:43;;;;;;;;;15.75;13.50;;;;;21.83;56.19;101139.56;4939368;28;45640;-85
2021/08/12 03:33:09;;;;;;;;;13.25;13.25;;;;;21.64;56.85;101114.09;4941041;28;45175;-82
2021/08/12 03:35:35;;;;;;;;;10.75;10.75;;;;;21.71;56.85;101120.41;4938111;28;45698;-87
2021/08/12 03:38:00;;;;;;;;;11.25;10.75;;;;;21.74;56.70;101130.75;4923885;28;45733;-89
2021/08/12 03:40:25;;;;;;;;;12.50;12.25;;;;;21.56;56.66;101104.25;4920920;28;45648;-88
2021/08/12 03:42:51;;;;;;;;;15.25;13.25;;;;;21.62;56.72;101122.25;4922110;28;45776;-86
2021/08/12 03:45:17;;;;;;;;;13.75;13.00;;;;;21.63;57.27;101123.94;4922267;28;45711;-88
2021/08/12 03:47:42;;;;;;;;;13.75;12.75;;;;;21.52;56.98;101113.59;4923166;28;46359;-87
2021/08/12 03:53:29;;;;;;;;;12.75;12.25;;;;;21.51;57.08;101111.09;4920607;28;45665;-88
2021/08/12 03:55:59;;;;;;;;;13.75;12.75;;;;;21.51;57.07;101121.75;4919201;28;45611;-87
2021/08/12 03:58:24;;;;;;;;;13.75;13.50;;;;;21.11;56.91;101051.41;4917895;28;46851;-87
2021/08/12 04:00:49;;;;;;;;;12.75;11.75;;;;;21.42;57.07;101104.13;4917724;28;45647;-86
2021/08/12 04:03:15;;;;;;;;;15.00;14.25;;;;;21.29;57.10;101083.28;4918104;28;45680;-87
2021/08/12 04:05:40;;;;;;;;;11.25;9.75;;;;;21.29;57.47;101085.94;4919472;28;45560;-85
2021/08/12 04:08:06;;;;;;;;;11.25;11.00;;;;;21.50;57.48;101114.75;4919168;28;46471;-86
2021/08/12 04:10:32;;;;;;;;;16.25;12.50;;;;;21.50;57.00;101104.09;4918528;28;45623;-87
2021/08/12 04:12:57;;;;;;;;;13.00;11.25;;;;;21.43;56.99;101097.78;4919364;28;45638;-88
2021/08/12 04:15:22;;;;;;;;;8.75;7.00;;;;;21.23;57.19;101060.78;4922919;28;45657;-88
2021/08/12 04:17:49;;;;;;;;;11.75;11.75;;;;;21.51;57.23;101109.28;4922355;28;45973;-87
2021/08/12 04:23:36;;;;;;;;;13.50;11.25;;;;;21.18;57.13;101057.78;4923422;28;45825;-88
2021/08/12 04:26:02;;;;;;;;;10.50;9.75;;;;;21.26;57.15;101067.63;4908915;28;45849;-88
2021/08/12 04:28:27;;;;;;;;;15.25;12.50;;;;;21.12;57.41;101045.09;4922308;28;46275;-86
2021/08/12 04:30:53;;;;;;;;;11.25;9.50;;;;;21.26;57.42;101072.97;4903514;28;48279;-81
2021/08/12 04:33:18;;;;;;;;;13.00;11.25;;;;;21.22;57.31;101072.44;4918834;28;45994;-82
2021/08/12 04:35:44;;;;;;;;;11.00;10.00;;;;;21.14;57.47;101053.81;4919514;28;45997;-83
2021/08/12 04:38:10;;;;;;;;;11.75;11.75;;;;;21.41;57.34;101097.94;4900738;28;46663;-85
2021/08/12 04:40:37;;;;;;;;;10.25;10.25;;;;;21.25;57.62;101068.63;4916893;28;45847;-83
2021/08/12 04:43:02;;;;;;;;;13.25;12.50;;;;;21.25;57.58;101077.47;4918885;28;45567;-87
2021/08/12 04:45:28;;;;;;;;;11.75;11.75;;;;;21.22;57.39;101063.63;4919981;28;45851;-87
2021/08/12 04:48:02;;;;;;;;;10.50;10.25;;;;;21.39;57.53;101086.59;4902363;28;47627;-87
2021/08/12 04:53:49;;;;;;;;;11.50;10.50;;;;;21.24;57.47;101075.78;4918852;28;45754;-89
2021/08/12 04:56:15;;;;;;;;;12.50;11.50;;;;;21.02;57.29;101038.25;4918489;28;45764;-82
2021/08/12 04:58:40;;;;;;;;;11.50;10.75;;;;;21.37;57.26;101085.97;4917014;28;46632;-84
2021/08/12 05:01:05;;;;;;;;;13.00;11.50;;;;;21.25;57.20;101073.97;4916728;28;45636;-85
2021/08/12 05:03:31;;;;;;;;;11.75;11.25;;;;;21.22;57.60;101075.09;4917381;28;45623;-86
2021/08/12 05:06:03;;;;;;;;;9.00;5.00;;;;;21.31;57.33;101089.28;4917850;28;45965;-84
2021/08/12 05:08:29;;;;;;;;;13.50;11.50;;;;;21.28;57.50;101076.28;4916305;28;47373;-84
2021/08/12 05:10:55;;;;;;;;;10.00;9.00;;;;;21.38;57.54;101086.78;4918459;28;45999;-86
2021/08/12 05:13:21;;;;;;;;;11.00;10.00;;;;;21.39;57.28;101088.44;4917344;28;45641;-81
2021/08/12 05:15:46;;;;;;;;;16.75;13.50;;;;;21.33;57.07;101079.28;4918399;28;45618;-84
2021/08/12 05:18:12;;;;;;;;;10.75;9.00;;;;;21.41;57.60;101095.28;4918393;28;46879;-85
2021/08/12 05:23:59;;;;;;;;;13.00;11.25;;;;;21.43;57.50;101093.25;4918288;28;45727;-84
2021/08/12 05:26:24;;;;;;;;;11.50;10.75;;;;;21.23;57.40;101065.28;4916989;28;45910;-85
2021/08/12 05:28:50;;;;;;;;;10.50;10.25;;;;;21.43;57.15;101093.25;4921290;28;46557;-81
2021/08/12 05:31:15;;;;;;;;;8.25;8.25;;;;;21.38;57.07;101097.47;4929904;28;46589;-86
2021/08/12 05:33:41;;;;;;;;;12.50;11.00;;;;;21.41;57.35;101097.94;4936360;28;45638;-82
2021/08/12 05:36:06;;;;;;;;;10.75;10.50;;;;;21.34;57.60;101083.59;4937330;28;45094;-80
2021/08/12 05:38:32;;;;;;;;;12.25;12.25;;;;;21.46;57.06;101100.09;4932244;28;45719;-81
2021/08/12 05:40:57;;;;;;;;;15.00;13.00;;;;;21.32;56.95;101073.09;4931039;28;46012;-84
2021/08/12 05:43:27;;;;;;;;;14.00;10.50;;;;;21.50;57.30;101096.94;4933707;28;45361;-84
2021/08/12 05:45:53;;;;;;;;;12.50;10.25;;;;;21.56;57.14;101106.09;4914998;28;45663;-79
2021/08/12 05:48:20;;;;;;;;;11.25;11.25;;;;;21.58;57.26;101107.59;4933061;28;45787;-79
2021/08/12 05:54:07;;;;;;;;;14.25;13.25;;;;;21.62;57.16;101105.44;4929459;28;45254;-80
2021/08/12 05:56:35;;;;;;;;;12.50;11.25;;;;;21.61;57.51;101104.59;4948824;23;46004;-79
2021/08/12 05:59:00;;;;;;;;;11.00;11.00;;;;;21.61;57.03;101093.94;4977413;23;45660;-80
2021/08/12 06:01:26;;;;;;;;;13.25;11.25;;;;;21.64;57.23;101106.09;4976572;28;45946;-79
2021/08/12 06:03:51;;;;;;;;;11.25;11.25;;;;;21.62;57.08;101103.59;4964855;28;45601;-85
2021/08/12 06:06:16;;;;;;;;;15.00;13.75;;;;;21.67;57.13;101113.75;4973488;28;45731;-79
2021/08/12 06:08:42;;;;;;;;;11.00;10.75;;;;;21.66;57.32;101120.09;4959101;28;45890;-84
2021/08/12 06:11:07;;;;;;;;;9.75;9.75;;;;;21.65;57.52;101121.91;4938551;28;48238;-77
2021/08/12 06:13:33;;;;;;;;;11.00;10.75;;;;;21.65;57.40;101121.09;4961082;28;46261;-77
2021/08/12 06:15:59;;;;;;;;;13.00;11.50;;;;;21.65;57.09;101118.41;4961008;28;45668;-78
2021/08/12 06:18:25;;;;;;;;;12.75;11.50;;;;;21.62;57.23;101116.09;4970946;28;47488;-78
2021/08/12 06:20:50;;;;;;;;;14.00;13.25;;;;;21.63;57.61;101115.94;4961561;28;46990;-77
2021/08/12 06:23:16;;;;;;;;;12.50;11.00;;;;;21.65;57.91;101113.91;4952829;28;45794;-77
2021/08/12 06:25:41;;;;;;;;;11.25;11.00;;;;;21.66;57.75;101120.09;4966920;28;45720;-77
2021/08/12 06:28:08;;;;;;;;;14.25;13.25;;;;;21.63;57.33;101117.75;4968693;28;46751;-76
2021/08/12 06:30:34;;;;;;;;;13.75;11.25;;;;;21.65;57.72;101121.91;4962880;28;46999;-78
2021/08/12 06:33:00;;;;;;;;;13.75;12.25;;;;;21.67;57.50;101116.41;4964093;28;45776;-78
2021/08/12 06:35:27;;;;;;;;;16.00;14.00;;;;;21.71;57.29;101115.91;4947350;28;45617;-83
2021/08/12 06:37:53;;;;;;;;;12.50;11.50;;;;;21.73;57.52;101113.91;4966647;28;46613;-84
2021/08/12 06:40:22;;;;;;;;;14.00;13.00;;;;;21.69;57.61;101101.94;4960758;28;46357;-84
2021/08/12 06:42:49;;;;;;;;;12.50;12.25;;;;;21.83;57.08;101121.72;4958182;28;45962;-84
2021/08/12 06:45:16;;;;;;;;;16.25;14.25;;;;;21.87;56.91;101125.72;4951190;28;46034;-84
2021/08/12 06:47:41;;;;;;;;;17.00;14.75;;;;;21.80;57.31;101108.75;4943542;28;46447;-84
2021/08/12 06:50:08;;;;;;;;;17.00;14.25;;;;;21.92;57.42;101126.03;4956491;28;46294;-86
2021/08/12 06:52:34;;;;;;;;;16.00;15.00;;;;;21.87;57.41;101116.88;4971931;28;45720;-85
2021/08/12 06:55:00;;;;;;;;;16.25;14.25;;;;;21.88;56.95;101115.88;4968457;28;46062;-84
2021/08/12 06:57:26;;;;;;;;;16.00;16.00;;;;;21.97;57.02;101130.94;4970344;28;47179;-84
2021/08/12 06:59:51;;;;;;;;;16.25;16.25;;;;;21.76;57.75;101096.72;4970882;28;45871;-84
2021/08/12 07:02:17;;;;;;;;;16.50;16.50;;;;;21.61;56.87;101075.25;4970439;28;46098;-84
2021/08/12 07:04:42;;;;;;;;;15.00;14.00;;;;;21.88;57.38;101110.56;4968634;28;45707;-83
2021/08/12 07:07:08;;;;;;;;;17.50;16.00;;;;;22.00;57.56;101122.56;4971224;28;45916;-84
2021/08/12 07:09:34;;;;;;;;;16.25;14.25;;;;;21.96;57.13;101118.59;4966933;28;46368;-84
2021/08/12 07:12:00;;;;;;;;;16.00;15.75;;;;;21.90;56.98;101108.56;4941385;28;46156;-83
2021/08/12 07:14:25;;;;;;;;;18.00;15.50;;;;;22.01;57.51;101118.91;4965293;28;45665;-85
2021/08/12 07:16:51;;;;;;;;;15.00;13.25;;;;;21.90;57.49;101104.06;4959365;28;46274;-85
2021/08/12 07:19:16;;;;;;;;;15.25;13.00;;;;;21.99;57.08;101112.91;4968559;28;45807;-83
2021/08/12 07:21:42;;;;;;;;;12.50;12.50;;;;;21.99;57.48;101115.56;4965610;28;45799;-84
2021/08/12 07:24:08;;;;;;;;;15.25;14.75;;;;;21.81;57.37;101089.03;4971281;28;45833;-83
2021/08/12 07:26:35;;;;;;;;;15.25;14.50;;;;;22.01;56.96;101116.22;4966787;28;47497;-84
2021/08/12 07:29:01;;;;;;;;;18.25;15.25;;;;;21.85;56.96;101095.72;4962492;28;45888;-83
2021/08/12 07:31:27;;;;;;;;;14.75;14.75;;;;;21.99;57.05;101115.56;4970782;28;45721;-83
2021/08/12 07:33:52;;;;;;;;;15.50;13.75;;;;;22.06;56.95;101122.72;4964994;28;45878;-82
2021/08/12 07:36:18;;;;;;;;;16.75;15.50;;;;;22.06;56.81;101113.88;4965364;28;45886;-83
2021/08/12 07:38:44;;;;;;;;;17.25;15.00;;;;;22.03;57.20;101106.19;4977123;28;47002;-82
2021/08/12 07:41:09;;;;;;;;;14.50;13.75;;;;;22.03;57.32;101104.38;4963632;28;46048;-83
2021/08/12 07:43:35;;;;;;;;;14.50;13.25;;;;;22.08;56.89;101099.34;4970216;28;45575;-84
2021/08/12 07:46:00;;;;;;;;;14.00;11.75;;;;;22.05;57.16;101088.19;4957414;28;45833;-86
2021/08/12 07:48:26;;;;;;;;;15.50;14.25;;;;;22.17;56.55;101103.69;4969700;28;45955;-84
2021/08/12 07:50:51;;;;;;;;;13.75;13.25;;;;;22.12;57.20;101087.34;4959906;28;45865;-83
2021/08/12 07:53:17;;;;;;;;;16.00;14.75;;;;;22.23;57.17;101104.00;4963707;28;45862;-84
2021/08/12 07:55:42;;;;;;;;;18.75;17.00;;;;;22.18;56.90;101085.81;4966987;28;46501;-84
2021/08/12 07:58:07;;;;;;;;;17.75;16.75;;;;;22.26;56.97;101096.47;4965914;28;47989;-83
2021/08/12 08:00:33;;;;;;;;;18.50;16.25;;;;;22.30;57.09;101089.75;4969563;28;45771;-85
2021/08/12 08:02:59;;;;;;;;;14.25;12.50;;;;;22.46;56.71;101102.22;4966530;28;45837;-84
2021/08/12 08:05:25;;;;;;;;;16.25;15.25;;;;;22.47;56.21;101102.03;4957298;28;47480;-84
2021/08/12 08:07:53;;;;;;;;;16.75;15.25;;;;;22.39;56.74;101091.41;4945797;28;46118;-86
2021/08/12 08:10:21;;;;;;;;;16.00;15.75;;;;;22.50;56.16;101106.22;4959619;28;45677;-85
2021/08/12 08:12:46;;;;;;;;;17.50;15.50;;;;;22.52;56.34;101109.53;4973445;28;45771;-84
2021/08/12 08:15:14;;;;;;;;;15.25;13.50;;;;;22.51;56.67;101103.34;4960258;28;45741;-84
2021/08/12 08:17:40;;;;;;;;;16.00;14.00;;;;;22.62;56.78;101110.13;4955812;28;47331;-85
2021/08/12 08:20:08;;;;;;;;;17.00;14.25;;;;;22.53;56.71;101087.16;4968833;28;45763;-85
2021/08/12 08:22:34;;;;;;;;;17.50;15.75;;;;;22.56;56.58;101090.31;4969805;28;45962;-84
2021/08/12 08:25:00;;;;;;;;;17.75;16.00;;;;;22.72;56.00;101115.31;4939038;28;48648;-84
2021/08/12 08:27:25;;;;;;;;;15.50;14.50;;;;;22.59;56.59;101092.63;4968302;28;46480;-85
2021/08/12 08:29:52;;;;;;;;;15.25;13.00;;;;;22.74;56.31;101103.44;4966385;28;45780;-83
2021/08/12 08:32:21;;;;;;;;;14.00;13.25;;;;;22.67;55.91;101074.91;4962615;28;45691;-84
2021/08/12 08:34:47;;;;;;;;;14.00;13.00;;;;;22.88;55.85;101109.88;4942499;28;46701;-85
2021/08/12 08:37:13;;;;;;;;;17.50;16.75;;;;;22.68;55.86;101064.03;4963818;28;46192;-83
2021/08/12 08:39:39;;;;;;;;;14.00;13.00;;;;;22.94;56.36;101101.97;4957187;28;46203;-84
2021/08/12 08:42:06;;;;;;;;;16.00;14.50;;;;;22.98;55.70;101105.13;4963909;28;45723;-86
2021/08/12 08:44:34;;;;;;;;;17.25;14.00;;;;;22.76;56.10;101063.19;4957205;28;46431;-84
2021/08/12 08:47:00;;;;;;;;;15.25;13.50;;;;;22.96;55.58;101099.97;4972888;28;45565;-84
2021/08/12 08:49:28;;;;;;;;;16.25;14.50;;;;;22.82;55.54;101067.81;4968511;28;45715;-85
2021/08/12 08:51:54;;;;;;;;;13.00;13.00;;;;;22.98;55.82;101097.94;4964197;28;45925;-85
2021/08/12 08:54:20;;;;;;;;;14.25;13.50;;;;;23.15;55.72;101122.72;4968807;28;46517;-83
2021/08/12 08:56:46;;;;;;;;;18.75;16.00;;;;;23.19;55.86;101124.03;4961116;28;45970;-86
2021/08/12 08:59:12;;;;;;;;;15.00;14.25;;;;;23.02;55.80;101090.41;4972456;28;45670;-86
2021/08/12 09:01:39;;;;;;;;;14.00;13.50;;;;;23.27;55.73;101123.97;4972355;28;45869;-84
2021/08/12 09:04:05;;;;;;;;;13.75;12.75;;;;;23.29;55.68;101124.63;4955184;28;46577;-85
2021/08/12 09:06:31;;;;;;;;;14.75;13.25;;;;;23.35;55.27;101131.09;4972352;28;46394;-84
2021/08/12 09:08:58;;;;;;;;;14.00;14.00;;;;;23.35;55.14;101123.91;4969980;28;45648;-84
2021/08/12 09:11:24;;;;;;;;;15.00;15.00;;;;;23.38;55.21;101122.69;4971880;28;45821;-85
2021/08/12 09:13:50;;;;;;;;;13.50;12.25;;;;;23.29;54.77;101105.91;4958269;28;46692;-83
2021/08/12 09:16:28;;;;;;;;;14.50;14.50;;;;;23.50;54.92;101128.50;4941722;28;47452;-84
2021/08/12 09:19:19;;;;;;;;;15.75;14.00;;;;;23.55;55.61;101140.31;4960027;28;45980;-84
2021/08/12 09:21:45;;;;;;;;;12.25;11.25;;;;;23.61;55.17;101130.72;4973780;28;45881;-83
2021/08/12 09:24:11;;;;;;;;;16.50;13.50;;;;;23.64;54.94;101122.38;4973949;28;45750;-85
2021/08/12 09:26:39;;;;;;;;;14.75;13.75;;;;;23.71;55.25;101117.94;4957666;28;45910;-83
2021/08/12 09:29:08;;;;;;;;;17.00;14.00;;;;;23.75;54.61;101119.25;4963732;28;46056;-84
2021/08/12 09:31:34;;;;;;;;;14.25;13.50;;;;;23.79;55.03;101128.56;4972883;28;45909;-85
2021/08/12 09:34:12;;;;;;;;;13.00;11.75;;;;;23.82;54.65;101128.19;4971215;28;45774;-85
2021/08/12 09:36:39;;;;;;;;;15.00;14.00;;;;;23.84;54.58;101115.47;4979868;28;46096;-82
2021/08/12 09:39:07;;;;;;;;;13.50;13.00;;;;;23.96;54.37;101119.38;4980731;28;45865;-84
2021/08/12 09:41:57;;;;;;;;;15.50;13.75;;;;;23.96;54.57;101116.69;4959002;28;45787;-84
2021/08/12 09:44:28;;;;;;;;;14.75;13.25;;;;;24.08;54.24;101127.75;4956540;28;46629;-85
2021/08/12 09:46:56;;;;;;;;;13.25;12.25;;;;;24.11;53.46;101120.19;4955177;28;46262;-81
2021/08/12 09:49:21;;;;;;;;;15.00;12.00;;;;;24.15;53.66;101123.34;4968093;28;45688;-83
2021/08/12 09:51:47;;;;;;;;;12.50;11.75;;;;;24.22;53.86;101127.81;4952235;28;45666;-84
2021/08/12 09:54:12;;;;;;;;;14.25;13.00;;;;;24.30;53.67;101123.34;4965667;28;46334;-85
2021/08/12 09:56:38;;;;;;;;;14.25;13.25;;;;;24.34;53.12;101121.97;4958845;28;46512;-82
2021/08/12 09:59:06;;;;;;;;;13.00;11.25;;;;;24.36;53.39;101106.53;4971671;28;46289;-85
2021/08/12 10:01:32;;;;;;;;;17.00;16.25;;;;;24.32;53.51;101084.66;4971669;28;45638;-85
2021/08/12 10:03:57;;;;;;;;;13.00;13.00;;;;;24.42;53.13;101095.06;4970113;28;46126;-85
2021/08/12 10:06:27;;;;;;;;;12.50;11.50;;;;;24.55;53.26;101103.28;4954559;28;48469;-84
2021/08/12 10:08:53;;;;;;;;;15.75;13.75;;;;;24.64;53.38;101110.19;4968752;28;46218;-82
2021/08/12 10:11:26;;;;;;;;;13.25;12.00;;;;;24.71;53.25;101105.75;4952770;28;45759;-84
2021/08/12 10:13:55;;;;;;;;;13.50;12.75;;;;;24.77;52.96;101106.84;4953151;28;48410;-83
2021/08/12 10:16:21;;;;;;;;;15.25;13.25;;;;;24.80;52.90;101107.28;4971870;28;46354;-86
2021/08/12 10:18:48;;;;;;;;;19.50;14.50;;;;;24.87;52.86;101105.53;4971838;28;45783;-85
2021/08/12 10:21:17;;;;;;;;;14.50;13.00;;;;;24.91;52.85;101095.25;4971179;28;45613;-85
2021/08/12 10:23:49;;;;;;;;;15.50;14.50;;;;;24.91;52.65;101092.59;4946435;28;48448;-86
2021/08/12 10:26:19;;;;;;;;;13.50;12.75;;;;;24.97;52.57;101097.19;4962167;28;46353;-86
2021/08/12 10:28:48;;;;;;;;;11.50;11.25;;;;;24.90;52.68;101072.16;4971306;28;45664;-85
2021/08/12 10:31:22;;;;;;;;;14.25;13.75;;;;;25.13;52.08;101106.84;4974738;28;45922;-83
2021/08/12 10:33:49;;;;;;;;;15.25;14.25;;;;;25.17;52.23;101100.06;4969725;28;46575;-82
2021/08/12 10:36:16;;;;;;;;;12.75;12.75;;;;;25.21;52.03;101096.00;4955278;28;46232;-83
2021/08/12 10:38:42;;;;;;;;;13.50;12.50;;;;;25.28;52.19;101107.59;4956198;28;45607;-82
2021/08/12 10:41:09;;;;;;;;;14.25;12.75;;;;;25.16;52.10;101071.56;4957602;28;46180;-83
2021/08/12 10:43:35;;;;;;;;;13.50;13.50;;;;;25.32;52.00;101088.22;4975791;28;46046;-82
2021/08/12 10:46:02;;;;;;;;;16.00;14.00;;;;;25.44;51.68;101092.06;4964383;28;45733;-83
2021/08/12 10:48:29;;;;;;;;;13.50;12.25;;;;;25.50;51.62;101096.66;4963214;28;45600;-85
2021/08/12 10:51:11;;;;;;;;;14.50;14.00;;;;;25.58;51.54;101094.88;4943628;28;45835;-86
2021/08/12 10:53:42;;;;;;;;;14.50;13.00;;;;;25.63;51.32;101098.66;4967374;28;45663;-83
2021/08/12 10:56:10;;;;;;;;;13.25;11.25;;;;;25.68;51.30;101098.88;4956944;28;46520;-87
2021/08/12 10:58:38;;;;;;;;;12.00;11.00;;;;;25.59;51.37;101069.72;4976528;28;45663;-85
2021/08/12 11:01:08;;;;;;;;;12.00;10.75;;;;;25.77;51.24;101086.97;4962533;28;45675;-86
2021/08/12 11:03:33;;;;;;;;;15.50;12.75;;;;;25.78;51.16;101085.09;4964106;28;45683;-86
2021/08/12 11:06:03;;;;;;;;;12.25;11.25;;;;;25.84;50.71;101081.63;4976466;28;46251;-86
2021/08/12 11:08:59;;;;;;;;;15.75;14.25;;;;;25.95;50.36;101091.84;4958542;28;45795;-85
2021/08/12 11:11:25;;;;;;;;;15.00;13.25;;;;;26.01;50.36;101092.91;4956174;28;45612;-83
2021/08/12 11:13:56;;;;;;;;;12.50;12.25;;;;;26.06;50.48;101093.13;4971975;28;45973;-81
2021/08/12 11:16:23;;;;;;;;;14.75;11.25;;;;;26.09;50.67;101080.13;4974874;28;46320;-84
2021/08/12 11:19:21;;;;;;;;;12.00;11.50;;;;;26.19;50.30;101082.44;4982285;28;45607;-82
2021/08/12 11:21:48;;;;;;;;;14.75;13.00;;;;;26.25;50.02;101087.06;4964257;28;46055;-82
2021/08/12 11:24:14;;;;;;;;;13.25;13.00;;;;;26.30;49.53;101082.75;4976279;28;46099;-82
2021/08/12 11:26:45;;;;;;;;;12.25;11.50;;;;;26.36;49.68;101086.47;4973930;28;46058;-84
2021/08/12 11:29:22;;;;;;;;;13.25;13.25;;;;;26.43;49.86;101081.97;4963731;28;45896;-82
2021/08/12 11:31:47;;;;;;;;;14.75;12.50;;;;;26.47;49.89;101077.00;4972823;28;45745;-82
2021/08/12 11:34:15;;;;;;;;;13.75;11.50;;;;;26.50;49.42;101074.78;4968849;28;46512;-83
2021/08/12 11:37:04;;;;;;;;;12.25;11.50;;;;;26.51;49.09;101079.09;4972704;28;45758;-81
2021/08/12 11:39:30;;;;;;;;;12.50;11.75;;;;;26.55;49.17;101071.47;4962531;28;45833;-83
2021/08/12 11:41:56;;;;;;;;;11.00;11.00;;;;;26.65;49.26;101077.28;4956166;28;45718;-81
2021/08/12 11:44:21;;;;;;;;;13.75;13.50;;;;;26.61;48.35;101058.03;4956189;28;46460;-83
2021/08/12 11:46:48;;;;;;;;;14.00;13.50;;;;;26.74;48.57;101074.22;4966322;28;46065;-83